createdAt,value
2022-12-28T00:00:29.780Z,3.6
2022-12-28T00:01:29.796Z,3.6
2022-12-28T00:02:30.174Z,3.6
2022-12-28T00:03:29.745Z,3.7
2022-12-28T00:04:29.821Z,3.8
2022-12-28T00:05:29.776Z,3.8
2022-12-28T00:06:29.837Z,3.8
2022-12-28T00:07:34.863Z,3.9
2022-12-28T00:08:34.873Z,3.9
2022-12-28T00:09:29.923Z,3.9
2022-12-28T00:11:06.971Z,3.9
2022-12-28T00:11:30.868Z,3.9
2022-12-28T00:12:30.064Z,3.9
2022-12-28T00:13:30.081Z,3.9
2022-12-28T00:14:30.202Z,4
2022-12-28T00:15:30.153Z,4
2022-12-28T00:16:30.278Z,3.9
2022-12-28T00:17:40.236Z,3.8
2022-12-28T00:18:30.263Z,3.8
2022-12-28T00:19:30.362Z,3.8
2022-12-28T00:20:30.317Z,3.8
2022-12-28T00:21:30.336Z,3.9
2022-12-28T00:22:30.373Z,3.9
2022-12-28T00:23:30.450Z,3.9
2022-12-28T00:24:30.537Z,4
2022-12-28T00:25:30.711Z,3.9
2022-12-28T00:26:35.780Z,4
2022-12-28T00:27:30.716Z,4
2022-12-28T00:28:30.944Z,4
2022-12-28T00:29:30.948Z,4
2022-12-28T00:30:31.099Z,3.9
2022-12-28T00:31:31.043Z,3.9
2022-12-28T00:32:31.062Z,3.9
2022-12-28T00:33:31.220Z,3.9
2022-12-28T00:34:31.168Z,3.9
2022-12-28T00:35:31.153Z,4
2022-12-28T00:37:08.046Z,4
2022-12-28T00:37:31.258Z,4
2022-12-28T00:38:31.249Z,4.1
2022-12-28T00:39:31.302Z,4.1
2022-12-28T00:40:31.331Z,4
2022-12-28T00:41:31.326Z,4
2022-12-28T00:42:31.390Z,4.1
2022-12-28T00:43:31.380Z,4.1
2022-12-28T00:44:31.402Z,4.1
2022-12-28T00:45:31.491Z,4.1
2022-12-28T00:46:31.518Z,4.1
2022-12-28T00:47:31.557Z,4.1
2022-12-28T00:48:31.596Z,4.1
2022-12-28T00:49:31.580Z,4.1
2022-12-28T00:50:31.616Z,4.2
2022-12-28T00:51:31.645Z,4.2
2022-12-28T00:52:31.664Z,4.3
2022-12-28T00:53:31.714Z,4.3
2022-12-28T00:54:31.703Z,4.4
2022-12-28T00:55:31.801Z,4.4
2022-12-28T00:56:31.852Z,4.5
2022-12-28T00:57:31.876Z,4.6
2022-12-28T00:58:31.877Z,4.6
2022-12-28T00:59:31.903Z,4.5
2022-12-28T01:00:31.941Z,4.5
2022-12-28T01:01:32.068Z,4.5
2022-12-28T01:02:32.062Z,4.5
2022-12-28T01:03:32.034Z,4.6
2022-12-28T01:04:32.063Z,4.6
2022-12-28T01:05:32.114Z,4.6
2022-12-28T01:06:32.098Z,4.6
2022-12-28T01:07:32.143Z,4.6
2022-12-28T01:08:32.168Z,4.6
2022-12-28T01:09:32.207Z,4.6
2022-12-28T01:10:32.260Z,4.7
2022-12-28T01:11:32.274Z,4.7
2022-12-28T01:12:37.853Z,4.8
2022-12-28T01:13:32.407Z,4.7
2022-12-28T01:14:32.431Z,4.7
2022-12-28T01:15:32.455Z,4.8
2022-12-28T01:16:32.573Z,4.8
2022-12-28T01:17:32.482Z,4.8
2022-12-28T01:18:32.609Z,4.8
2022-12-28T01:19:32.524Z,4.8
2022-12-28T01:20:32.591Z,4.8
2022-12-28T01:21:32.596Z,4.8
2022-12-28T01:22:32.642Z,4.9
2022-12-28T01:23:32.662Z,4.9
2022-12-28T01:24:32.717Z,4.9
2022-12-28T01:25:32.770Z,4.9
2022-12-28T01:26:32.826Z,5
2022-12-28T01:27:32.820Z,5
2022-12-28T01:28:32.867Z,5
2022-12-28T01:29:32.876Z,5
2022-12-28T01:30:32.923Z,5
2022-12-28T01:31:33.142Z,5.1
2022-12-28T01:32:32.986Z,5.1
2022-12-28T01:33:33.013Z,5.2
2022-12-28T01:34:33.082Z,5.2
2022-12-28T01:35:33.139Z,5.1
2022-12-28T01:36:33.193Z,5.1
2022-12-28T01:37:33.267Z,5.1
2022-12-28T01:38:33.369Z,5.1
2022-12-28T01:39:33.443Z,5.2
2022-12-28T01:40:33.465Z,5.2
2022-12-28T01:41:33.521Z,5.2
2022-12-28T01:42:33.564Z,5.3
2022-12-28T01:43:33.602Z,5.3
2022-12-28T01:44:33.652Z,5.3
2022-12-28T01:45:33.730Z,5.3
2022-12-28T01:46:33.718Z,5.4
2022-12-28T01:47:33.747Z,5.3
2022-12-28T01:48:33.791Z,5.3
2022-12-28T01:49:33.778Z,5.4
2022-12-28T01:50:33.876Z,5.3
2022-12-28T01:51:33.843Z,5.3
2022-12-28T01:52:33.877Z,5.3
2022-12-28T01:53:33.895Z,5.3
2022-12-28T01:54:33.928Z,5.3
2022-12-28T01:55:34.002Z,5.3
2022-12-28T01:56:34.034Z,5.3
2022-12-28T01:57:34.045Z,5.4
2022-12-28T01:58:34.080Z,5.4
2022-12-28T01:59:34.101Z,5.5
2022-12-28T02:00:34.150Z,5.4
2022-12-28T02:01:34.239Z,5.4
2022-12-28T02:02:34.339Z,5.4
2022-12-28T02:03:34.356Z,5.4
2022-12-28T02:04:34.260Z,5.4
2022-12-28T02:05:34.318Z,5.4
2022-12-28T02:06:34.372Z,5.5
2022-12-28T02:07:34.361Z,5.5
2022-12-28T02:08:34.396Z,5.4
2022-12-28T02:09:34.436Z,5.4
2022-12-28T02:10:40.382Z,5.4
2022-12-28T02:11:35.289Z,5.4
2022-12-28T02:12:34.620Z,5.4
2022-12-28T02:13:34.598Z,5.4
2022-12-28T02:14:34.617Z,5.5
2022-12-28T02:15:34.703Z,5.4
2022-12-28T02:16:34.775Z,5.4
2022-12-28T02:17:34.752Z,5.4
2022-12-28T02:18:34.822Z,5.4
2022-12-28T02:19:34.813Z,5.4
2022-12-28T02:20:34.935Z,5.4
2022-12-28T02:21:34.901Z,5.4
2022-12-28T02:22:34.936Z,5.4
2022-12-28T02:23:34.947Z,5.5
2022-12-28T02:24:34.944Z,5.4
2022-12-28T02:25:35.008Z,5.5
2022-12-28T02:26:35.045Z,5.5
2022-12-28T02:27:35.073Z,5.6
2022-12-28T02:28:35.106Z,5.6
2022-12-28T02:29:35.136Z,5.6
2022-12-28T02:30:35.189Z,5.6
2022-12-28T02:31:35.190Z,5.6
2022-12-28T02:32:35.237Z,5.6
2022-12-28T02:33:35.292Z,5.6
2022-12-28T02:34:35.286Z,5.6
2022-12-28T02:35:35.353Z,5.7
2022-12-28T02:36:35.387Z,5.6
2022-12-28T02:37:35.389Z,5.6
2022-12-28T02:38:35.468Z,5.6
2022-12-28T02:39:35.477Z,5.6
2022-12-28T02:40:35.490Z,5.5
2022-12-28T02:41:35.524Z,5.5
2022-12-28T02:42:35.570Z,5.5
2022-12-28T02:43:35.611Z,5.5
2022-12-28T02:44:35.664Z,5.4
2022-12-28T02:45:35.682Z,5.4
2022-12-28T02:46:35.748Z,5.3
2022-12-28T02:47:35.836Z,5.3
2022-12-28T02:48:35.889Z,5.1
2022-12-28T02:49:35.908Z,5.1
2022-12-28T02:50:35.967Z,5.1
2022-12-28T02:51:36.047Z,5.2
2022-12-28T02:52:36.071Z,5.2
2022-12-28T02:53:36.138Z,5.3
2022-12-28T02:54:36.268Z,5.2
2022-12-28T02:55:36.258Z,5.3
2022-12-28T02:56:36.317Z,5.3
2022-12-28T02:57:36.322Z,5.3
2022-12-28T02:58:36.330Z,5.3
2022-12-28T02:59:36.372Z,5.3
2022-12-28T03:00:36.438Z,5.3
2022-12-28T03:01:36.568Z,5.3
2022-12-28T03:02:36.646Z,5.3
2022-12-28T03:03:36.545Z,5.3
2022-12-28T03:04:36.543Z,5.3
2022-12-28T03:05:36.613Z,5.4
2022-12-28T03:06:36.607Z,5.4
2022-12-28T03:07:36.675Z,5.4
2022-12-28T03:08:36.715Z,5.5
2022-12-28T03:09:36.735Z,5.5
2022-12-28T03:10:36.828Z,5.5
2022-12-28T03:11:36.837Z,5.7
2022-12-28T03:12:36.868Z,5.7
2022-12-28T03:13:38.730Z,5.7
2022-12-28T03:14:36.960Z,5.7
2022-12-28T03:15:36.994Z,5.8
2022-12-28T03:16:36.927Z,5.8
2022-12-28T03:17:36.994Z,5.8
2022-12-28T03:18:37.035Z,5.8
2022-12-28T03:19:37.043Z,5.8
2022-12-28T03:20:37.113Z,5.8
2022-12-28T03:21:37.126Z,5.9
2022-12-28T03:22:37.147Z,5.9
2022-12-28T03:23:37.179Z,5.9
2022-12-28T03:26:04.715Z,6
2022-12-28T03:26:37.260Z,6
2022-12-28T03:27:37.299Z,6
2022-12-28T03:28:37.491Z,6
2022-12-28T03:29:37.372Z,6
2022-12-28T03:30:37.498Z,6
2022-12-28T03:31:37.451Z,6
2022-12-28T03:32:37.508Z,6
2022-12-28T03:33:37.543Z,6
2022-12-28T03:34:37.537Z,6.1
2022-12-28T03:35:37.562Z,6.1
2022-12-28T03:36:37.642Z,6.1
2022-12-28T03:37:37.616Z,6.1
2022-12-28T03:38:37.673Z,6.1
2022-12-28T03:39:37.696Z,6.2
2022-12-28T03:40:37.770Z,6.2
2022-12-28T03:41:37.816Z,6.1
2022-12-28T03:42:37.906Z,6.1
2022-12-28T03:43:37.837Z,6.1
2022-12-28T03:44:37.886Z,6.1
2022-12-28T03:45:44.754Z,6.2
2022-12-28T03:46:37.980Z,6.2
2022-12-28T03:47:37.991Z,6.2
2022-12-28T03:48:38.023Z,6.3
2022-12-28T03:49:38.097Z,6.3
2022-12-28T03:50:38.116Z,6.3
2022-12-28T03:51:38.143Z,6.3
2022-12-28T03:52:38.188Z,6.3
2022-12-28T03:53:38.201Z,6.3
2022-12-28T03:54:38.265Z,6.4
2022-12-28T03:55:38.261Z,6.4
2022-12-28T03:56:38.340Z,6.4
2022-12-28T03:57:38.424Z,6.4
2022-12-28T03:58:38.441Z,6.4
2022-12-28T03:59:38.541Z,6.4
2022-12-28T04:00:38.616Z,6.4
2022-12-28T04:01:38.804Z,6.4
2022-12-28T04:02:38.819Z,6.4
2022-12-28T04:03:38.775Z,6.5
2022-12-28T04:04:38.783Z,6.5
2022-12-28T04:05:38.851Z,6.4
2022-12-28T04:06:38.914Z,6.5
2022-12-28T04:07:38.945Z,6.5
2022-12-28T04:08:38.936Z,6.6
2022-12-28T04:09:39.027Z,6.5
2022-12-28T04:10:39.007Z,6.5
2022-12-28T04:11:39.061Z,6.5
2022-12-28T04:12:39.142Z,6.5
2022-12-28T04:13:39.146Z,6.5
2022-12-28T04:14:39.223Z,6.5
2022-12-28T04:15:39.195Z,6.6
2022-12-28T04:16:39.234Z,6.5
2022-12-28T04:17:39.233Z,6.5
2022-12-28T04:18:40.304Z,6.5
2022-12-28T04:19:39.429Z,6.6
2022-12-28T04:20:39.538Z,6.5
2022-12-28T04:21:40.611Z,6.6
2022-12-28T04:22:39.563Z,6.5
2022-12-28T04:23:39.542Z,6.6
2022-12-28T04:24:39.571Z,6.6
2022-12-28T04:25:39.677Z,6.6
2022-12-28T04:26:39.706Z,6.6
2022-12-28T04:27:44.624Z,6.6
2022-12-28T04:28:39.705Z,6.6
2022-12-28T04:29:39.891Z,6.6
2022-12-28T04:31:29.908Z,6.6
2022-12-28T04:31:39.793Z,6.6
2022-12-28T04:32:39.759Z,6.6
2022-12-28T04:33:39.815Z,6.6
2022-12-28T04:34:43.237Z,6.7
2022-12-28T04:35:39.883Z,6.7
2022-12-28T04:36:39.911Z,6.7
2022-12-28T04:37:40.072Z,6.6
2022-12-28T04:38:39.992Z,6.6
2022-12-28T04:39:54.398Z,6.6
2022-12-28T04:40:40.086Z,6.6
2022-12-28T04:41:40.102Z,6.6
2022-12-28T04:42:40.135Z,6.6
2022-12-28T04:43:40.159Z,6.6
2022-12-28T04:44:40.150Z,6.6
2022-12-28T04:45:40.263Z,6.6
2022-12-28T04:46:40.239Z,6.6
2022-12-28T04:47:40.280Z,6.7
2022-12-28T04:48:40.309Z,6.7
2022-12-28T04:49:40.351Z,6.6
2022-12-28T04:50:40.351Z,6.6
2022-12-28T04:51:40.423Z,6.6
2022-12-28T04:52:40.431Z,6.6
2022-12-28T04:53:40.471Z,6.7
2022-12-28T04:54:40.507Z,6.7
2022-12-28T04:55:40.535Z,6.7
2022-12-28T04:56:40.584Z,6.7
2022-12-28T04:57:40.703Z,6.8
2022-12-28T04:58:40.668Z,6.8
2022-12-28T04:59:40.683Z,6.8
2022-12-28T05:00:40.800Z,6.7
2022-12-28T05:01:40.965Z,6.7
2022-12-28T05:02:44.036Z,6.8
2022-12-28T05:03:40.814Z,6.8
2022-12-28T05:04:40.850Z,6.8
2022-12-28T05:05:40.900Z,6.8
2022-12-28T05:06:40.930Z,6.8
2022-12-28T05:07:41.210Z,6.8
2022-12-28T05:08:40.984Z,6.8
2022-12-28T05:09:41.061Z,6.8
2022-12-28T05:10:41.107Z,6.8
2022-12-28T05:11:41.216Z,6.8
2022-12-28T05:12:41.282Z,6.8
2022-12-28T05:13:41.345Z,6.8
2022-12-28T05:14:41.370Z,6.8
2022-12-28T05:15:41.449Z,6.8
2022-12-28T05:16:41.642Z,6.8
2022-12-28T05:17:41.583Z,6.8
2022-12-28T05:18:41.640Z,6.8
2022-12-28T05:19:41.641Z,6.8
2022-12-28T05:20:41.667Z,6.8
2022-12-28T05:21:41.673Z,6.9
2022-12-28T05:22:41.701Z,6.9
2022-12-28T05:23:42.030Z,6.9
2022-12-28T05:24:41.782Z,6.9
2022-12-28T05:25:41.885Z,6.9
2022-12-28T05:26:41.851Z,6.9
2022-12-28T05:27:41.866Z,6.9
2022-12-28T05:28:41.892Z,6.9
2022-12-28T05:29:41.890Z,6.9
2022-12-28T05:30:41.941Z,6.9
2022-12-28T05:31:42.112Z,6.9
2022-12-28T05:32:42.035Z,6.9
2022-12-28T05:33:42.098Z,6.9
2022-12-28T05:34:42.112Z,6.9
2022-12-28T05:35:42.125Z,6.9
2022-12-28T05:36:42.155Z,6.9
2022-12-28T05:37:42.169Z,6.9
2022-12-28T05:38:42.202Z,6.9
2022-12-28T05:39:42.198Z,6.9
2022-12-28T05:40:42.298Z,6.9
2022-12-28T05:41:42.312Z,6.9
2022-12-28T05:42:46.562Z,6.9
2022-12-28T05:43:42.395Z,6.9
2022-12-28T05:44:42.393Z,6.9
2022-12-28T05:45:42.431Z,6.9
2022-12-28T05:46:42.538Z,6.9
2022-12-28T05:47:42.504Z,7
2022-12-28T05:48:42.562Z,7
2022-12-28T05:49:42.589Z,7
2022-12-28T05:50:42.580Z,7
2022-12-28T05:51:42.617Z,6.9
2022-12-28T05:52:42.687Z,6.9
2022-12-28T05:53:42.760Z,7
2022-12-28T05:54:42.772Z,7
2022-12-28T05:55:42.781Z,7
2022-12-28T05:56:42.795Z,6.9
2022-12-28T05:57:42.813Z,6.9
2022-12-28T05:58:42.925Z,7
2022-12-28T05:59:42.876Z,7
2022-12-28T06:00:42.916Z,7
2022-12-28T06:01:43.102Z,7
2022-12-28T06:02:43.084Z,6.9
2022-12-28T06:03:43.030Z,6.9
2022-12-28T06:04:43.017Z,6.9
2022-12-28T06:05:43.108Z,6.9
2022-12-28T06:06:43.170Z,6.9
2022-12-28T06:07:43.123Z,6.9
2022-12-28T06:08:43.150Z,7
2022-12-28T06:09:43.207Z,7
2022-12-28T06:10:43.232Z,7
2022-12-28T06:11:43.270Z,7
2022-12-28T06:12:43.303Z,7
2022-12-28T06:13:43.368Z,7
2022-12-28T06:14:43.373Z,7
2022-12-28T06:15:43.441Z,7
2022-12-28T06:16:43.631Z,7
2022-12-28T06:17:43.492Z,6.9
2022-12-28T06:18:43.544Z,7
2022-12-28T06:19:43.529Z,7
2022-12-28T06:20:43.599Z,7.1
2022-12-28T06:21:43.688Z,7.1
2022-12-28T06:22:43.723Z,7.1
2022-12-28T06:23:43.800Z,7.1
2022-12-28T06:24:43.850Z,7.1
2022-12-28T06:25:43.905Z,7.1
2022-12-28T06:26:43.973Z,7.1
2022-12-28T06:27:44.000Z,7.1
2022-12-28T06:28:44.054Z,7.1
2022-12-28T06:29:44.124Z,7.1
2022-12-28T06:30:47.604Z,7.1
2022-12-28T06:31:44.263Z,7.2
2022-12-28T06:32:44.191Z,7.1
2022-12-28T06:33:44.262Z,7.1
2022-12-28T06:34:44.259Z,7.2
2022-12-28T06:35:44.321Z,7.1
2022-12-28T06:36:44.355Z,7.1
2022-12-28T06:37:44.391Z,7.2
2022-12-28T06:38:44.435Z,7.2
2022-12-28T06:39:44.448Z,7.2
2022-12-28T06:41:12.020Z,7.2
2022-12-28T06:41:44.526Z,7.2
2022-12-28T06:42:44.552Z,7.2
2022-12-28T06:43:44.576Z,7.2
2022-12-28T06:44:44.981Z,7.1
2022-12-28T06:45:44.740Z,7.1
2022-12-28T06:46:44.698Z,7.2
2022-12-28T06:47:44.709Z,7.1
2022-12-28T06:48:44.757Z,7.2
2022-12-28T06:49:44.783Z,7.2
2022-12-28T06:50:44.814Z,7.3
2022-12-28T06:51:44.875Z,7.3
2022-12-28T06:52:44.891Z,7.2
2022-12-28T06:53:44.951Z,7.2
2022-12-28T06:54:44.968Z,7.2
2022-12-28T06:55:44.973Z,7.2
2022-12-28T06:56:45.050Z,7.2
2022-12-28T06:57:45.055Z,7.2
2022-12-28T06:58:45.101Z,7.2
2022-12-28T06:59:45.135Z,7.2
2022-12-28T07:00:45.319Z,7.2
2022-12-28T07:01:45.376Z,7.2
2022-12-28T07:02:45.354Z,7.3
2022-12-28T07:03:45.316Z,7.3
2022-12-28T07:04:45.344Z,7.3
2022-12-28T07:05:45.353Z,7.3
2022-12-28T07:06:45.382Z,7.4
2022-12-28T07:07:45.395Z,7.4
2022-12-28T07:08:45.448Z,7.3
2022-12-28T07:09:45.493Z,7.3
2022-12-28T07:10:45.504Z,7.3
2022-12-28T07:11:45.543Z,7.3
2022-12-28T07:12:45.590Z,7.3
2022-12-28T07:13:45.615Z,7.3
2022-12-28T07:14:45.656Z,7.3
2022-12-28T07:15:45.733Z,7.3
2022-12-28T07:16:45.736Z,7.4
2022-12-28T07:17:45.768Z,7.4
2022-12-28T07:18:45.789Z,7.4
2022-12-28T07:19:45.812Z,7.4
2022-12-28T07:20:45.832Z,7.4
2022-12-28T07:21:45.901Z,7.4
2022-12-28T07:22:45.908Z,7.4
2022-12-28T07:23:45.929Z,7.4
2022-12-28T07:24:46.094Z,7.4
2022-12-28T07:25:46.039Z,7.4
2022-12-28T07:26:46.041Z,7.4
2022-12-28T07:27:46.410Z,7.4
2022-12-28T07:28:46.083Z,7.4
2022-12-28T07:29:46.121Z,7.4
2022-12-28T07:30:46.343Z,7.4
2022-12-28T07:31:46.219Z,7.4
2022-12-28T07:32:46.266Z,7.4
2022-12-28T07:33:46.342Z,7.4
2022-12-28T07:34:46.393Z,7.4
2022-12-28T07:35:46.432Z,7.4
2022-12-28T07:36:46.567Z,7.4
2022-12-28T07:37:46.599Z,7.4
2022-12-28T07:38:46.691Z,7.5
2022-12-28T07:39:46.745Z,7.5
2022-12-28T07:40:46.754Z,7.6
2022-12-28T07:41:46.863Z,7.6
2022-12-28T07:42:46.829Z,7.6
2022-12-28T07:43:46.853Z,7.6
2022-12-28T07:44:49.039Z,7.6
2022-12-28T07:45:46.965Z,7.6
2022-12-28T07:46:46.987Z,7.6
2022-12-28T07:47:46.992Z,7.5
2022-12-28T07:48:47.068Z,7.5
2022-12-28T07:49:47.095Z,7.6
2022-12-28T07:50:47.120Z,7.6
2022-12-28T07:51:47.155Z,7.6
2022-12-28T07:52:47.312Z,7.6
2022-12-28T07:53:47.295Z,7.6
2022-12-28T07:54:47.317Z,7.5
2022-12-28T07:55:47.443Z,7.6
2022-12-28T07:56:47.440Z,7.6
2022-12-28T07:57:47.475Z,7.6
2022-12-28T07:59:47.577Z,7.6
2022-12-28T08:00:47.585Z,7.6
2022-12-28T08:01:47.687Z,7.6
2022-12-28T08:02:47.694Z,7.6
2022-12-28T08:03:47.793Z,7.6
2022-12-28T08:04:52.129Z,7.6
2022-12-28T08:05:47.719Z,7.6
2022-12-28T08:06:47.822Z,7.6
2022-12-28T08:07:48.002Z,7.6
2022-12-28T08:08:47.861Z,7.6
2022-12-28T08:09:47.832Z,7.6
2022-12-28T08:10:47.871Z,7.6
2022-12-28T08:11:48.008Z,7.6
2022-12-28T08:12:48.888Z,7.6
2022-12-28T08:13:48.005Z,7.7
2022-12-28T08:14:52.906Z,7.6
2022-12-28T08:15:48.062Z,7.7
2022-12-28T08:16:48.071Z,7.7
2022-12-28T08:17:48.060Z,7.7
2022-12-28T08:18:48.042Z,7.7
2022-12-28T08:19:48.069Z,7.7
2022-12-28T08:20:48.146Z,7.7
2022-12-28T08:21:48.291Z,7.7
2022-12-28T08:22:48.212Z,7.7
2022-12-28T08:23:48.223Z,7.7
2022-12-28T08:24:48.275Z,7.7
2022-12-28T08:25:48.305Z,7.7
2022-12-28T08:26:48.380Z,7.7
2022-12-28T08:27:48.389Z,7.7
2022-12-28T08:28:48.420Z,7.7
2022-12-28T08:29:48.496Z,7.7
2022-12-28T08:30:48.546Z,7.7
2022-12-28T08:31:48.522Z,7.7
2022-12-28T08:32:48.540Z,7.7
2022-12-28T08:33:48.597Z,7.7
2022-12-28T08:34:48.656Z,7.7
2022-12-28T08:35:48.656Z,7.7
2022-12-28T08:36:48.679Z,7.7
2022-12-28T08:37:48.699Z,7.7
2022-12-28T08:38:48.748Z,7.7
2022-12-28T08:39:48.772Z,7.7
2022-12-28T08:42:16.056Z,7.8
2022-12-28T08:42:48.875Z,7.7
2022-12-28T08:43:48.960Z,7.7
2022-12-28T08:44:48.983Z,7.7
2022-12-28T08:45:49.103Z,7.8
2022-12-28T08:46:49.247Z,7.7
2022-12-28T08:47:49.205Z,7.7
2022-12-28T08:48:49.257Z,7.7
2022-12-28T08:49:49.280Z,7.7
2022-12-28T08:50:49.333Z,7.8
2022-12-28T08:51:49.359Z,7.8
2022-12-28T08:52:49.432Z,7.8
2022-12-28T08:53:49.444Z,7.8
2022-12-28T08:54:49.492Z,7.8
2022-12-28T08:55:49.552Z,7.8
2022-12-28T08:56:49.583Z,7.9
2022-12-28T08:57:49.588Z,7.8
2022-12-28T08:58:49.612Z,7.8
2022-12-28T08:59:49.601Z,7.8
2022-12-28T09:00:49.684Z,7.8
2022-12-28T09:01:49.812Z,7.9
2022-12-28T09:02:49.855Z,7.9
2022-12-28T09:03:49.849Z,7.9
2022-12-28T09:04:49.828Z,7.9
2022-12-28T09:05:54.183Z,7.9
2022-12-28T09:06:49.836Z,7.9
2022-12-28T09:07:51.821Z,7.9
2022-12-28T09:09:04.719Z,7.9
2022-12-28T09:09:50.030Z,7.9
2022-12-28T09:10:49.977Z,7.9
2022-12-28T09:11:50.294Z,7.9
2022-12-28T09:12:50.137Z,7.9
2022-12-28T09:13:50.059Z,7.9
2022-12-28T09:14:50.171Z,7.9
2022-12-28T09:15:50.229Z,7.9
2022-12-28T09:16:50.315Z,8
2022-12-28T09:17:50.456Z,8
2022-12-28T09:18:50.289Z,8
2022-12-28T09:19:50.931Z,8
2022-12-28T09:20:50.328Z,8
2022-12-28T09:21:50.389Z,8
2022-12-28T09:22:50.428Z,7.9
2022-12-28T09:23:50.406Z,7.9
2022-12-28T09:24:50.454Z,7.9
2022-12-28T09:25:50.499Z,7.9
2022-12-28T09:26:50.519Z,7.9
2022-12-28T09:27:54.633Z,7.9
2022-12-28T09:28:50.585Z,7.9
2022-12-28T09:29:50.588Z,7.9
2022-12-28T09:30:50.729Z,7.9
2022-12-28T09:31:50.682Z,7.9
2022-12-28T09:32:50.713Z,7.9
2022-12-28T09:34:23.210Z,7.9
2022-12-28T09:34:50.760Z,7.9
2022-12-28T09:35:50.791Z,7.9
2022-12-28T09:36:50.871Z,7.9
2022-12-28T09:37:50.874Z,7.9
2022-12-28T09:38:50.962Z,7.9
2022-12-28T09:39:50.913Z,8
2022-12-28T09:40:50.954Z,7.9
2022-12-28T09:41:51.012Z,7.9
2022-12-28T09:42:51.027Z,7.9
2022-12-28T09:43:51.044Z,7.9
2022-12-28T09:44:51.079Z,7.9
2022-12-28T09:45:51.104Z,7.9
2022-12-28T09:46:51.191Z,7.9
2022-12-28T09:47:51.205Z,8
2022-12-28T09:48:51.245Z,8
2022-12-28T09:49:51.286Z,8
2022-12-28T09:50:51.287Z,8
2022-12-28T09:51:51.386Z,8
2022-12-28T09:52:51.434Z,7.9
2022-12-28T09:53:51.401Z,7.9
2022-12-28T09:54:51.423Z,8
2022-12-28T09:55:51.505Z,8
2022-12-28T09:56:51.546Z,8
2022-12-28T09:57:51.620Z,8
2022-12-28T09:58:51.752Z,8
2022-12-28T09:59:51.816Z,8
2022-12-28T10:00:51.852Z,8.1
2022-12-28T10:01:52.021Z,8.1
2022-12-28T10:02:52.116Z,8.1
2022-12-28T10:03:52.015Z,8.1
2022-12-28T10:04:52.043Z,8.1
2022-12-28T10:05:52.123Z,8.1
2022-12-28T10:06:52.122Z,8.1
2022-12-28T10:07:52.136Z,8.1
2022-12-28T10:08:52.215Z,8.1
2022-12-28T10:09:52.194Z,8.1
2022-12-28T10:10:52.237Z,8.1
2022-12-28T10:11:52.287Z,8.1
2022-12-28T10:12:52.327Z,8.2
2022-12-28T10:13:54.865Z,8.2
2022-12-28T10:14:52.375Z,8.1
2022-12-28T10:15:52.475Z,8.1
2022-12-28T10:16:52.426Z,8.2
2022-12-28T10:17:52.503Z,8.2
2022-12-28T10:18:52.524Z,8.1
2022-12-28T10:19:52.514Z,8.2
2022-12-28T10:20:52.561Z,8.2
2022-12-28T10:21:52.611Z,8.1
2022-12-28T10:22:52.616Z,8.2
2022-12-28T10:24:52.709Z,8.2
2022-12-28T10:25:52.738Z,8.2
2022-12-28T10:26:52.762Z,8.2
2022-12-28T10:27:53.888Z,8.2
2022-12-28T10:28:52.840Z,8.3
2022-12-28T10:29:52.861Z,8.3
2022-12-28T10:30:52.868Z,8.3
2022-12-28T10:31:52.924Z,8.3
2022-12-28T10:32:55.584Z,8.2
2022-12-28T10:33:53.003Z,8.2
2022-12-28T10:34:52.996Z,8.2
2022-12-28T10:35:53.024Z,8.3
2022-12-28T10:36:58.191Z,8.3
2022-12-28T10:37:53.111Z,8.3
2022-12-28T10:38:53.142Z,8.3
2022-12-28T10:39:53.171Z,8.3
2022-12-28T10:40:53.212Z,8.3
2022-12-28T10:41:53.244Z,8.3
2022-12-28T10:42:53.266Z,8.3
2022-12-28T10:44:08.769Z,8.3
2022-12-28T10:44:53.336Z,8.3
2022-12-28T10:45:53.395Z,8.3
2022-12-28T10:46:53.436Z,8.3
2022-12-28T10:47:53.463Z,8.3
2022-12-28T10:48:53.519Z,8.3
2022-12-28T10:50:26.823Z,8.3
2022-12-28T10:50:53.550Z,8.4
2022-12-28T10:51:53.901Z,8.4
2022-12-28T10:52:53.645Z,8.4
2022-12-28T10:53:53.658Z,8.4
2022-12-28T10:55:07.392Z,8.4
2022-12-28T10:55:53.701Z,8.4
2022-12-28T10:56:54.115Z,8.4
2022-12-28T10:58:27.769Z,8.4
2022-12-28T10:58:53.806Z,8.4
2022-12-28T10:59:53.827Z,8.4
2022-12-28T11:00:53.880Z,8.4
2022-12-28T11:01:54.126Z,8.4
2022-12-28T11:02:53.968Z,8.4
2022-12-28T11:03:53.986Z,8.4
2022-12-28T11:04:54.011Z,8.4
2022-12-28T11:05:57.384Z,8.4
2022-12-28T11:06:54.090Z,8.4
2022-12-28T11:07:54.147Z,8.4
2022-12-28T11:08:54.241Z,8.4
2022-12-28T11:09:54.277Z,8.4
2022-12-28T11:10:54.316Z,8.4
2022-12-28T11:11:54.384Z,8.4
2022-12-28T11:12:54.435Z,8.4
2022-12-28T11:13:54.547Z,8.4
2022-12-28T11:14:54.579Z,8.4
2022-12-28T11:15:54.673Z,8.4
2022-12-28T11:16:54.697Z,8.5
2022-12-28T11:17:54.723Z,8.5
2022-12-28T11:18:54.826Z,8.5
2022-12-28T11:19:54.840Z,8.5
2022-12-28T11:20:55.096Z,8.5
2022-12-28T11:21:54.907Z,8.5
2022-12-28T11:22:54.884Z,8.5
2022-12-28T11:23:54.912Z,8.5
2022-12-28T11:24:54.985Z,8.5
2022-12-28T11:25:54.984Z,8.5
2022-12-28T11:26:54.985Z,8.5
2022-12-28T11:27:55.008Z,8.5
2022-12-28T11:28:55.085Z,8.5
2022-12-28T11:29:55.196Z,8.5
2022-12-28T11:30:55.099Z,8.5
2022-12-28T11:31:55.204Z,8.5
2022-12-28T11:32:55.217Z,8.4
2022-12-28T11:33:55.347Z,8.5
2022-12-28T11:34:55.234Z,8.5
2022-12-28T11:35:59.504Z,8.5
2022-12-28T11:36:55.328Z,8.5
2022-12-28T11:37:55.296Z,8.6
2022-12-28T11:38:55.346Z,8.6
2022-12-28T11:39:55.365Z,8.5
2022-12-28T11:40:55.690Z,8.5
2022-12-28T11:42:27.981Z,8.5
2022-12-28T11:42:55.435Z,8.5
2022-12-28T11:43:55.485Z,8.4
2022-12-28T11:44:55.510Z,8.5
2022-12-28T11:45:55.619Z,8.5
2022-12-28T11:46:55.555Z,8.5
2022-12-28T11:47:55.582Z,8.5
2022-12-28T11:48:55.695Z,8.4
2022-12-28T11:49:55.688Z,8.4
2022-12-28T11:50:55.730Z,8.5
2022-12-28T11:51:55.757Z,8.5
2022-12-28T11:52:55.787Z,8.4
2022-12-28T11:53:55.788Z,8.4
2022-12-28T11:54:55.814Z,8.4
2022-12-28T11:55:55.870Z,8.4
2022-12-28T11:56:55.950Z,8.4
2022-12-28T11:57:55.992Z,8.4
2022-12-28T11:58:55.932Z,8.4
2022-12-28T11:59:55.961Z,8.4
2022-12-28T12:00:55.978Z,8.4
2022-12-28T12:01:56.053Z,8.5
2022-12-28T12:02:56.110Z,8.5
2022-12-28T12:03:56.111Z,8.4
2022-12-28T12:04:56.119Z,8.5
2022-12-28T12:05:56.129Z,8.5
2022-12-28T12:06:56.304Z,8.5
2022-12-28T12:07:56.186Z,8.4
2022-12-28T12:08:56.246Z,8.4
2022-12-28T12:09:56.251Z,8.5
2022-12-28T12:10:56.260Z,8.5
2022-12-28T12:11:56.279Z,8.5
2022-12-28T12:12:56.403Z,8.4
2022-12-28T12:13:56.447Z,8.4
2022-12-28T12:14:56.450Z,8.4
2022-12-28T12:15:56.445Z,8.4
2022-12-28T12:16:56.486Z,8.5
2022-12-28T12:17:56.479Z,8.4
2022-12-28T12:18:56.572Z,8.4
2022-12-28T12:19:56.656Z,8.4
2022-12-28T12:20:56.685Z,8.4
2022-12-28T12:21:56.769Z,8.4
2022-12-28T12:22:56.801Z,8.4
2022-12-28T12:23:56.929Z,8.4
2022-12-28T12:24:56.980Z,8.4
2022-12-28T12:25:57.067Z,8.4
2022-12-28T12:26:57.102Z,8.4
2022-12-28T12:27:57.178Z,8.4
2022-12-28T12:28:57.251Z,8.4
2022-12-28T12:29:57.227Z,8.4
2022-12-28T12:30:57.263Z,8.5
2022-12-28T12:31:57.289Z,8.5
2022-12-28T12:32:57.301Z,8.5
2022-12-28T12:33:57.365Z,8.4
2022-12-28T12:34:57.368Z,8.4
2022-12-28T12:35:57.408Z,8.4
2022-12-28T12:36:57.433Z,8.4
2022-12-28T12:37:57.454Z,8.4
2022-12-28T12:38:57.504Z,8.4
2022-12-28T12:39:57.493Z,8.4
2022-12-28T12:40:57.534Z,8.4
2022-12-28T12:41:57.589Z,8.4
2022-12-28T12:42:57.616Z,8.4
2022-12-28T12:43:57.640Z,8.4
2022-12-28T12:44:57.704Z,8.4
2022-12-28T12:45:57.693Z,8.4
2022-12-28T12:47:02.130Z,8.4
2022-12-28T12:47:57.740Z,8.3
2022-12-28T12:48:57.788Z,8.3
2022-12-28T12:49:57.811Z,8.3
2022-12-28T12:50:57.847Z,8.3
2022-12-28T12:51:57.928Z,8.3
2022-12-28T12:52:57.925Z,8.3
2022-12-28T12:53:57.981Z,8.3
2022-12-28T12:55:39.607Z,8.3
2022-12-28T12:55:57.970Z,8.2
2022-12-28T12:56:58.008Z,8.3
2022-12-28T12:57:58.106Z,8.2
2022-12-28T12:58:58.080Z,8.2
2022-12-28T12:59:58.104Z,8.2
2022-12-28T13:00:58.289Z,8.2
2022-12-28T13:01:58.371Z,8.1
2022-12-28T13:02:58.283Z,8.1
2022-12-28T13:03:58.272Z,8.1
2022-12-28T13:04:58.328Z,8.1
2022-12-28T13:05:58.342Z,8.1
2022-12-28T13:06:58.363Z,8.1
2022-12-28T13:07:58.428Z,8.1
2022-12-28T13:09:05.252Z,8.1
2022-12-28T13:09:58.537Z,8.1
2022-12-28T13:10:58.620Z,8.1
2022-12-28T13:11:58.672Z,8.1
2022-12-28T13:13:05.925Z,8.1
2022-12-28T13:14:05.427Z,8.1
2022-12-28T13:19:10.722Z,8.1
2022-12-28T13:20:10.802Z,8.1
2022-12-28T13:29:12.061Z,8.1
2022-12-28T13:30:12.079Z,8.2
2022-12-28T13:31:12.170Z,8.2
2022-12-28T13:32:12.164Z,8.2
2022-12-28T13:33:12.266Z,8.2
2022-12-28T13:37:13.482Z,8.2
2022-12-28T13:38:13.477Z,8.2
2022-12-28T13:39:13.554Z,8.3
2022-12-28T13:40:13.596Z,8.3
2022-12-28T13:41:13.683Z,8.2
2022-12-28T13:42:13.739Z,8.2
2022-12-28T13:43:13.782Z,8.2
2022-12-28T13:44:13.825Z,8.2
2022-12-28T13:45:13.840Z,8.2
2022-12-28T13:46:13.973Z,8.2
2022-12-28T13:47:14.001Z,8.3
2022-12-28T13:48:14.085Z,8.3
2022-12-28T13:49:14.098Z,8.3
2022-12-28T13:50:14.153Z,8.3
2022-12-28T13:51:14.179Z,8.4
2022-12-28T13:52:14.267Z,8.4
2022-12-28T13:53:14.375Z,8.4
2022-12-28T13:54:14.364Z,8.3
2022-12-28T13:55:14.390Z,8.4
2022-12-28T13:56:14.483Z,8.4
2022-12-28T13:57:45.099Z,8.4
2022-12-28T13:58:14.566Z,8.4
2022-12-28T13:59:14.638Z,8.4
2022-12-28T14:00:14.674Z,8.4
2022-12-28T14:01:14.907Z,8.4
2022-12-28T14:02:14.852Z,8.4
2022-12-28T14:03:14.842Z,8.4
2022-12-28T14:04:50.939Z,8.4
2022-12-28T14:05:15.008Z,8.5
2022-12-28T14:06:15.016Z,8.5
2022-12-28T14:07:15.097Z,8.5
2022-12-28T14:08:15.116Z,8.5
2022-12-28T14:09:15.196Z,8.6
2022-12-28T14:10:15.259Z,8.5